sensor_id;sensor_type;location;lat;lon;timestamp;P1;durP1;ratioP1;P2;durP2;ratioP2
1721;SDS011;858;53.190;8.596;2023-04-01T00:01:52;21.58;;;14.05;;
1721;SDS011;858;53.190;8.596;2023-04-01T00:04:19;20.83;;;14.03;;
1721;SDS011;858;53.190;8.596;2023-04-01T00:06:46;22.02;;;14.25;;
1721;SDS011;858;53.190;8.596;2023-04-01T00:09:13;21.10;;;15.00;;
1721;SDS011;858;53.190;8.596;2023-04-01T00:11:40;18.17;;;13.60;;
1721;SDS011;858;53.190;8.596;2023-04-01T00:14:06;21.10;;;15.15;;
1721;SDS011;858;53.190;8.596;2023-04-01T00:16:33;22.50;;;14.88;;
1721;SDS011;858;53.190;8.596;2023-04-01T00:19:01;20.80;;;15.32;;
1721;SDS011;858;53.190;8.596;2023-04-01T00:21:28;28.42;;;14.60;;
1721;SDS011;858;53.190;8.596;2023-04-01T00:23:55;25.63;;;14.77;;
1721;SDS011;858;53.190;8.596;2023-04-01T00:26:24;23.40;;;14.88;;
1721;SDS011;858;53.190;8.596;2023-04-01T00:28:50;22.13;;;14.90;;
1721;SDS011;858;53.190;8.596;2023-04-01T00:31:17;20.60;;;14.00;;
1721;SDS011;858;53.190;8.596;2023-04-01T00:33:43;24.70;;;14.80;;
1721;SDS011;858;53.190;8.596;2023-04-01T00:36:11;20.55;;;14.98;;
1721;SDS011;858;53.190;8.596;2023-04-01T00:38:38;24.33;;;14.32;;
1721;SDS011;858;53.190;8.596;2023-04-01T00:41:06;22.80;;;15.43;;
1721;SDS011;858;53.190;8.596;2023-04-01T00:43:32;23.23;;;14.55;;
1721;SDS011;858;53.190;8.596;2023-04-01T00:45:59;23.20;;;15.60;;
1721;SDS011;858;53.190;8.596;2023-04-01T00:48:28;22.35;;;15.40;;
1721;SDS011;858;53.190;8.596;2023-04-01T00:50:56;23.05;;;14.75;;
1721;SDS011;858;53.190;8.596;2023-04-01T00:53:25;18.80;;;13.80;;
1721;SDS011;858;53.190;8.596;2023-04-01T00:55:54;19.02;;;13.60;;
1721;SDS011;858;53.190;8.596;2023-04-01T00:58:23;21.40;;;13.40;;
1721;SDS011;858;53.190;8.596;2023-04-01T01:00:51;18.08;;;13.63;;
1721;SDS011;858;53.190;8.596;2023-04-01T01:03:20;21.23;;;13.40;;
1721;SDS011;858;53.190;8.596;2023-04-01T01:05:59;20.17;;;13.77;;
1721;SDS011;858;53.190;8.596;2023-04-01T01:08:33;23.23;;;14.35;;
1721;SDS011;858;53.190;8.596;2023-04-01T01:11:05;21.05;;;14.68;;
1721;SDS011;858;53.190;8.596;2023-04-01T01:13:36;19.80;;;14.23;;
1721;SDS011;858;53.190;8.596;2023-04-01T01:16:07;22.63;;;15.00;;
1721;SDS011;858;53.190;8.596;2023-04-01T01:18:37;20.07;;;14.07;;
1721;SDS011;858;53.190;8.596;2023-04-01T01:21:09;22.30;;;15.05;;
1721;SDS011;858;53.190;8.596;2023-04-01T01:23:50;22.73;;;14.95;;
1721;SDS011;858;53.190;8.596;2023-04-01T01:29:07;22.00;;;15.60;;
1721;SDS011;858;53.190;8.596;2023-04-01T01:31:45;22.23;;;15.88;;
1721;SDS011;858;53.190;8.596;2023-04-01T01:34:17;22.13;;;15.25;;
1721;SDS011;858;53.190;8.596;2023-04-01T01:36:50;23.50;;;14.80;;
1721;SDS011;858;53.190;8.596;2023-04-01T01:39:20;20.85;;;15.32;;
1721;SDS011;858;53.190;8.596;2023-04-01T01:41:51;29.42;;;15.90;;
1721;SDS011;858;53.190;8.596;2023-04-01T01:44:18;22.10;;;15.70;;
1721;SDS011;858;53.190;8.596;2023-04-01T01:46:45;22.15;;;15.40;;
1721;SDS011;858;53.190;8.596;2023-04-01T01:49:12;26.17;;;16.30;;
1721;SDS011;858;53.190;8.596;2023-04-01T01:51:40;22.10;;;16.38;;
1721;SDS011;858;53.190;8.596;2023-04-01T01:54:12;20.55;;;15.40;;
1721;SDS011;858;53.190;8.596;2023-04-01T01:56:39;21.08;;;15.48;;
1721;SDS011;858;53.190;8.596;2023-04-01T01:59:08;24.23;;;16.13;;
1721;SDS011;858;53.190;8.596;2023-04-01T02:01:35;21.77;;;15.88;;
1721;SDS011;858;53.190;8.596;2023-04-01T02:04:02;27.08;;;17.02;;
1721;SDS011;858;53.190;8.596;2023-04-01T02:06:31;24.67;;;16.60;;
1721;SDS011;858;53.190;8.596;2023-04-01T02:08:59;23.58;;;15.57;;
1721;SDS011;858;53.190;8.596;2023-04-01T02:11:29;23.58;;;16.15;;
1721;SDS011;858;53.190;8.596;2023-04-01T02:13:57;23.90;;;16.45;;
1721;SDS011;858;53.190;8.596;2023-04-01T02:16:27;24.10;;;16.58;;
1721;SDS011;858;53.190;8.596;2023-04-01T02:18:54;21.73;;;15.82;;
1721;SDS011;858;53.190;8.596;2023-04-01T02:21:22;21.67;;;15.30;;
1721;SDS011;858;53.190;8.596;2023-04-01T02:23:50;22.30;;;15.57;;
1721;SDS011;858;53.190;8.596;2023-04-01T02:26:22;23.45;;;15.77;;
1721;SDS011;858;53.190;8.596;2023-04-01T02:28:51;21.95;;;15.45;;
1721;SDS011;858;53.190;8.596;2023-04-01T02:31:19;21.38;;;14.57;;
1721;SDS011;858;53.190;8.596;2023-04-01T02:33:45;23.98;;;15.75;;
1721;SDS011;858;53.190;8.596;2023-04-01T02:36:12;23.30;;;15.75;;
1721;SDS011;858;53.190;8.596;2023-04-01T02:38:39;25.92;;;16.73;;
1721;SDS011;858;53.190;8.596;2023-04-01T02:41:06;21.45;;;15.15;;
1721;SDS011;858;53.190;8.596;2023-04-01T02:43:33;20.13;;;14.50;;
1721;SDS011;858;53.190;8.596;2023-04-01T02:46:01;22.10;;;15.80;;
1721;SDS011;858;53.190;8.596;2023-04-01T02:48:28;24.70;;;15.68;;
1721;SDS011;858;53.190;8.596;2023-04-01T02:50:56;21.25;;;14.70;;
1721;SDS011;858;53.190;8.596;2023-04-01T02:53:24;22.10;;;15.80;;
1721;SDS011;858;53.190;8.596;2023-04-01T02:55:50;20.67;;;14.93;;
1721;SDS011;858;53.190;8.596;2023-04-01T02:58:17;22.15;;;14.85;;
1721;SDS011;858;53.190;8.596;2023-04-01T03:00:43;24.88;;;16.38;;
1721;SDS011;858;53.190;8.596;2023-04-01T03:03:11;25.10;;;15.48;;
1721;SDS011;858;53.190;8.596;2023-04-01T03:05:41;20.23;;;14.37;;
1721;SDS011;858;53.190;8.596;2023-04-01T03:08:07;22.90;;;15.98;;
1721;SDS011;858;53.190;8.596;2023-04-01T03:10:34;22.20;;;15.43;;
1721;SDS011;858;53.190;8.596;2023-04-01T03:13:00;23.23;;;15.70;;
1721;SDS011;858;53.190;8.596;2023-04-01T03:15:27;24.15;;;15.45;;
1721;SDS011;858;53.190;8.596;2023-04-01T03:17:53;20.05;;;14.75;;
1721;SDS011;858;53.190;8.596;2023-04-01T03:20:24;23.73;;;16.05;;
1721;SDS011;858;53.190;8.596;2023-04-01T03:22:50;23.23;;;15.80;;
1721;SDS011;858;53.190;8.596;2023-04-01T03:25:17;21.98;;;15.40;;
1721;SDS011;858;53.190;8.596;2023-04-01T03:27:43;24.27;;;16.10;;
1721;SDS011;858;53.190;8.596;2023-04-01T03:30:10;21.90;;;15.80;;
1721;SDS011;858;53.190;8.596;2023-04-01T03:32:36;22.20;;;15.85;;
1721;SDS011;858;53.190;8.596;2023-04-01T03:35:03;25.75;;;16.70;;
1721;SDS011;858;53.190;8.596;2023-04-01T03:37:31;22.80;;;15.67;;
1721;SDS011;858;53.190;8.596;2023-04-01T03:39:58;24.55;;;15.43;;
1721;SDS011;858;53.190;8.596;2023-04-01T03:42:24;23.25;;;15.15;;
1721;SDS011;858;53.190;8.596;2023-04-01T03:44:50;22.17;;;15.40;;
1721;SDS011;858;53.190;8.596;2023-04-01T03:47:17;23.75;;;16.10;;
1721;SDS011;858;53.190;8.596;2023-04-01T03:49:43;23.58;;;16.00;;
1721;SDS011;858;53.190;8.596;2023-04-01T03:52:10;22.63;;;14.80;;
1721;SDS011;858;53.190;8.596;2023-04-01T03:54:38;23.33;;;15.77;;
1721;SDS011;858;53.190;8.596;2023-04-01T03:57:04;24.40;;;15.70;;
1721;SDS011;858;53.190;8.596;2023-04-01T03:59:30;26.85;;;16.00;;
1721;SDS011;858;53.190;8.596;2023-04-01T04:01:57;26.98;;;16.80;;
1721;SDS011;858;53.190;8.596;2023-04-01T04:04:25;23.52;;;15.43;;
1721;SDS011;858;53.190;8.596;2023-04-01T04:06:51;26.88;;;16.95;;
1721;SDS011;858;53.190;8.596;2023-04-01T04:09:18;25.90;;;17.07;;
1721;SDS011;858;53.190;8.596;2023-04-01T04:11:46;26.77;;;18.25;;
1721;SDS011;858;53.190;8.596;2023-04-01T04:14:13;26.80;;;18.85;;
1721;SDS011;858;53.190;8.596;2023-04-01T04:16:39;28.85;;;18.92;;
1721;SDS011;858;53.190;8.596;2023-04-01T04:19:06;27.13;;;18.73;;
1721;SDS011;858;53.190;8.596;2023-04-01T04:21:32;29.50;;;18.67;;
1721;SDS011;858;53.190;8.596;2023-04-01T04:23:58;28.70;;;19.05;;
1721;SDS011;858;53.190;8.596;2023-04-01T04:26:25;32.55;;;19.30;;
1721;SDS011;858;53.190;8.596;2023-04-01T04:28:53;27.98;;;19.08;;
1721;SDS011;858;53.190;8.596;2023-04-01T04:31:20;29.83;;;19.10;;
1721;SDS011;858;53.190;8.596;2023-04-01T04:33:46;27.55;;;18.60;;
1721;SDS011;858;53.190;8.596;2023-04-01T04:36:13;25.52;;;18.00;;
1721;SDS011;858;53.190;8.596;2023-04-01T04:38:40;28.85;;;17.88;;
1721;SDS011;858;53.190;8.596;2023-04-01T04:41:08;24.73;;;17.17;;
1721;SDS011;858;53.190;8.596;2023-04-01T04:43:34;25.48;;;15.95;;
1721;SDS011;858;53.190;8.596;2023-04-01T04:46:05;26.10;;;17.50;;
1721;SDS011;858;53.190;8.596;2023-04-01T04:48:31;26.20;;;17.48;;
1721;SDS011;858;53.190;8.596;2023-04-01T04:50:59;27.90;;;18.08;;
1721;SDS011;858;53.190;8.596;2023-04-01T04:53:26;24.55;;;17.38;;
1721;SDS011;858;53.190;8.596;2023-04-01T04:55:52;25.45;;;17.20;;
1721;SDS011;858;53.190;8.596;2023-04-01T04:58:19;26.10;;;17.85;;
1721;SDS011;858;53.190;8.596;2023-04-01T05:00:45;23.37;;;16.00;;
1721;SDS011;858;53.190;8.596;2023-04-01T05:03:13;24.92;;;16.30;;
1721;SDS011;858;53.190;8.596;2023-04-01T05:05:47;22.60;;;16.50;;
1721;SDS011;858;53.190;8.596;2023-04-01T05:08:13;22.00;;;16.10;;
1721;SDS011;858;53.190;8.596;2023-04-01T05:10:40;24.52;;;16.25;;
1721;SDS011;858;53.190;8.596;2023-04-01T05:13:06;27.10;;;16.93;;
1721;SDS011;858;53.190;8.596;2023-04-01T05:15:33;22.65;;;15.68;;
1721;SDS011;858;53.190;8.596;2023-04-01T05:17:59;21.92;;;15.43;;
1721;SDS011;858;53.190;8.596;2023-04-01T05:20:27;23.23;;;16.10;;
1721;SDS011;858;53.190;8.596;2023-04-01T05:22:55;20.17;;;15.05;;
1721;SDS011;858;53.190;8.596;2023-04-01T05:25:21;23.00;;;15.98;;
1721;SDS011;858;53.190;8.596;2023-04-01T05:27:47;23.85;;;14.95;;
1721;SDS011;858;53.190;8.596;2023-04-01T05:30:14;21.42;;;14.60;;
1721;SDS011;858;53.190;8.596;2023-04-01T05:32:40;25.05;;;15.70;;
1721;SDS011;858;53.190;8.596;2023-04-01T05:35:08;20.00;;;14.30;;
1721;SDS011;858;53.190;8.596;2023-04-01T05:37:38;20.23;;;13.70;;
1721;SDS011;858;53.190;8.596;2023-04-01T05:40:06;20.77;;;13.70;;
1721;SDS011;858;53.190;8.596;2023-04-01T05:42:33;17.30;;;13.17;;
1721;SDS011;858;53.190;8.596;2023-04-01T05:44:59;20.75;;;12.70;;
1721;SDS011;858;53.190;8.596;2023-04-01T05:47:25;21.15;;;13.30;;
1721;SDS011;858;53.190;8.596;2023-04-01T05:49:53;19.25;;;12.93;;
1721;SDS011;858;53.190;8.596;2023-04-01T05:52:21;15.30;;;11.95;;
1721;SDS011;858;53.190;8.596;2023-04-01T05:54:48;20.23;;;12.23;;
1721;SDS011;858;53.190;8.596;2023-04-01T05:57:15;19.17;;;12.00;;
1721;SDS011;858;53.190;8.596;2023-04-01T05:59:41;19.43;;;12.00;;
1721;SDS011;858;53.190;8.596;2023-04-01T06:02:08;20.80;;;12.82;;
1721;SDS011;858;53.190;8.596;2023-04-01T06:04:37;18.40;;;12.68;;
1721;SDS011;858;53.190;8.596;2023-04-01T06:07:05;16.60;;;11.80;;
1721;SDS011;858;53.190;8.596;2023-04-01T06:09:31;18.13;;;12.15;;
1721;SDS011;858;53.190;8.596;2023-04-01T06:12:08;14.88;;;12.23;;
1721;SDS011;858;53.190;8.596;2023-04-01T06:14:37;18.35;;;12.45;;
1721;SDS011;858;53.190;8.596;2023-04-01T06:17:12;15.32;;;11.75;;
1721;SDS011;858;53.190;8.596;2023-04-01T06:19:46;14.63;;;11.52;;
1721;SDS011;858;53.190;8.596;2023-04-01T06:22:20;16.83;;;11.77;;
1721;SDS011;858;53.190;8.596;2023-04-01T06:27:45;16.95;;;11.80;;
1721;SDS011;858;53.190;8.596;2023-04-01T06:30:19;17.20;;;11.80;;
1721;SDS011;858;53.190;8.596;2023-04-01T06:32:53;18.85;;;12.20;;
1721;SDS011;858;53.190;8.596;2023-04-01T06:35:28;18.33;;;12.13;;
1721;SDS011;858;53.190;8.596;2023-04-01T06:41:06;16.52;;;11.70;;
1721;SDS011;858;53.190;8.596;2023-04-01T06:43:43;13.32;;;10.70;;
1721;SDS011;858;53.190;8.596;2023-04-01T06:46:12;14.13;;;11.10;;
1721;SDS011;858;53.190;8.596;2023-04-01T06:48:45;16.30;;;11.20;;
1721;SDS011;858;53.190;8.596;2023-04-01T06:51:18;13.20;;;10.00;;
1721;SDS011;858;53.190;8.596;2023-04-01T06:53:47;14.10;;;10.10;;
1721;SDS011;858;53.190;8.596;2023-04-01T06:56:20;12.55;;;10.32;;
1721;SDS011;858;53.190;8.596;2023-04-01T06:58:50;15.75;;;10.70;;
1721;SDS011;858;53.190;8.596;2023-04-01T07:01:20;12.77;;;10.32;;
1721;SDS011;858;53.190;8.596;2023-04-01T07:03:49;12.60;;;9.77;;
1721;SDS011;858;53.190;8.596;2023-04-01T07:06:26;10.82;;;9.73;;
1721;SDS011;858;53.190;8.596;2023-04-01T07:08:53;13.20;;;9.77;;
1721;SDS011;858;53.190;8.596;2023-04-01T07:11:22;13.05;;;9.43;;
1721;SDS011;858;53.190;8.596;2023-04-01T07:13:53;11.93;;;9.20;;
1721;SDS011;858;53.190;8.596;2023-04-01T07:16:21;12.45;;;9.50;;
1721;SDS011;858;53.190;8.596;2023-04-01T07:18:51;12.18;;;9.40;;
1721;SDS011;858;53.190;8.596;2023-04-01T07:21:22;10.82;;;8.73;;
1721;SDS011;858;53.190;8.596;2023-04-01T07:23:49;11.40;;;8.52;;
1721;SDS011;858;53.190;8.596;2023-04-01T07:26:18;11.80;;;8.80;;
1721;SDS011;858;53.190;8.596;2023-04-01T07:28:45;10.50;;;9.40;;
1721;SDS011;858;53.190;8.596;2023-04-01T07:31:17;9.98;;;8.77;;
1721;SDS011;858;53.190;8.596;2023-04-01T07:33:48;11.00;;;8.27;;
1721;SDS011;858;53.190;8.596;2023-04-01T07:36:18;10.07;;;9.00;;
1721;SDS011;858;53.190;8.596;2023-04-01T07:38:47;10.73;;;8.80;;
1721;SDS011;858;53.190;8.596;2023-04-01T07:41:17;10.30;;;7.65;;
1721;SDS011;858;53.190;8.596;2023-04-01T07:43:53;9.52;;;8.02;;
1721;SDS011;858;53.190;8.596;2023-04-01T07:46:25;9.95;;;7.82;;
1721;SDS011;858;53.190;8.596;2023-04-01T07:48:56;7.90;;;7.10;;
1721;SDS011;858;53.190;8.596;2023-04-01T07:51:25;11.00;;;8.95;;
1721;SDS011;858;53.190;8.596;2023-04-01T07:53:56;8.52;;;6.20;;
1721;SDS011;858;53.190;8.596;2023-04-01T07:56:25;6.30;;;5.70;;
1721;SDS011;858;53.190;8.596;2023-04-01T07:58:56;7.13;;;5.53;;
1721;SDS011;858;53.190;8.596;2023-04-01T08:01:27;5.68;;;4.60;;
1721;SDS011;858;53.190;8.596;2023-04-01T08:04:01;5.68;;;4.95;;
1721;SDS011;858;53.190;8.596;2023-04-01T08:06:31;5.25;;;4.70;;
1721;SDS011;858;53.190;8.596;2023-04-01T08:09:00;4.63;;;4.23;;
1721;SDS011;858;53.190;8.596;2023-04-01T08:11:31;5.15;;;4.57;;
1721;SDS011;858;53.190;8.596;2023-04-01T08:14:01;5.30;;;4.60;;
1721;SDS011;858;53.190;8.596;2023-04-01T08:16:33;5.85;;;4.60;;
1721;SDS011;858;53.190;8.596;2023-04-01T08:19:03;5.32;;;4.30;;
1721;SDS011;858;53.190;8.596;2023-04-01T08:21:32;4.38;;;3.75;;
1721;SDS011;858;53.190;8.596;2023-04-01T08:24:04;4.30;;;4.00;;
1721;SDS011;858;53.190;8.596;2023-04-01T08:26:32;5.00;;;4.38;;
1721;SDS011;858;53.190;8.596;2023-04-01T08:29:02;4.60;;;4.10;;
1721;SDS011;858;53.190;8.596;2023-04-01T08:31:32;5.72;;;4.43;;
1721;SDS011;858;53.190;8.596;2023-04-01T08:34:01;4.77;;;4.37;;
1721;SDS011;858;53.190;8.596;2023-04-01T08:36:31;5.10;;;3.70;;
1721;SDS011;858;53.190;8.596;2023-04-01T08:38:59;5.38;;;4.20;;
1721;SDS011;858;53.190;8.596;2023-04-01T08:41:33;4.50;;;3.80;;
1721;SDS011;858;53.190;8.596;2023-04-01T08:44:12;3.92;;;3.28;;
1721;SDS011;858;53.190;8.596;2023-04-01T08:52:36;3.10;;;2.80;;
1721;SDS011;858;53.190;8.596;2023-04-01T08:57:51;3.30;;;2.53;;
1721;SDS011;858;53.190;8.596;2023-04-01T09:00:22;3.92;;;2.30;;
1721;SDS011;858;53.190;8.596;2023-04-01T09:05:41;2.80;;;2.20;;
1721;SDS011;858;53.190;8.596;2023-04-01T09:08:20;4.45;;;2.05;;
1721;SDS011;858;53.190;8.596;2023-04-01T09:11:05;2.30;;;2.10;;
1721;SDS011;858;53.190;8.596;2023-04-01T09:14:00;1.95;;;1.85;;
1721;SDS011;858;53.190;8.596;2023-04-01T09:16:37;2.20;;;2.00;;
1721;SDS011;858;53.190;8.596;2023-04-01T09:24:42;2.50;;;2.30;;
1721;SDS011;858;53.190;8.596;2023-04-01T09:27:14;1.90;;;1.70;;
1721;SDS011;858;53.190;8.596;2023-04-01T09:29:51;1.77;;;1.67;;
1721;SDS011;858;53.190;8.596;2023-04-01T09:35:04;1.85;;;1.67;;
1721;SDS011;858;53.190;8.596;2023-04-01T09:37:36;4.10;;;2.30;;
1721;SDS011;858;53.190;8.596;2023-04-01T09:40:15;2.20;;;1.80;;
1721;SDS011;858;53.190;8.596;2023-04-01T09:42:44;1.80;;;1.70;;
1721;SDS011;858;53.190;8.596;2023-04-01T09:45:16;2.40;;;2.30;;
1721;SDS011;858;53.190;8.596;2023-04-01T09:47:50;2.20;;;2.10;;
1721;SDS011;858;53.190;8.596;2023-04-01T09:50:27;3.03;;;2.72;;
1721;SDS011;858;53.190;8.596;2023-04-01T09:52:57;1.95;;;1.85;;
1721;SDS011;858;53.190;8.596;2023-04-01T09:55:50;2.10;;;2.00;;
1721;SDS011;858;53.190;8.596;2023-04-01T10:01:25;2.63;;;2.50;;
1721;SDS011;858;53.190;8.596;2023-04-01T10:06:59;2.53;;;2.33;;
1721;SDS011;858;53.190;8.596;2023-04-01T10:12:41;1.90;;;1.70;;
1721;SDS011;858;53.190;8.596;2023-04-01T10:15:18;1.43;;;1.33;;
1721;SDS011;858;53.190;8.596;2023-04-01T10:23:18;0.80;;;0.80;;
1721;SDS011;858;53.190;8.596;2023-04-01T10:31:28;0.80;;;0.80;;
1721;SDS011;858;53.190;8.596;2023-04-01T10:34:12;0.93;;;0.80;;
1721;SDS011;858;53.190;8.596;2023-04-01T10:36:47;1.30;;;0.80;;
1721;SDS011;858;53.190;8.596;2023-04-01T10:39:32;0.80;;;0.80;;
1721;SDS011;858;53.190;8.596;2023-04-01T10:55:55;1.35;;;1.23;;
1721;SDS011;858;53.190;8.596;2023-04-01T11:01:21;1.63;;;1.52;;
1721;SDS011;858;53.190;8.596;2023-04-01T11:06:52;2.80;;;2.60;;
1721;SDS011;858;53.190;8.596;2023-04-01T11:20:46;2.17;;;2.08;;
1721;SDS011;858;53.190;8.596;2023-04-01T11:23:28;2.97;;;1.85;;
1721;SDS011;858;53.190;8.596;2023-04-01T11:26:04;2.50;;;2.30;;
1721;SDS011;858;53.190;8.596;2023-04-01T11:31:22;1.80;;;1.70;;
1721;SDS011;858;53.190;8.596;2023-04-01T11:33:52;1.80;;;1.40;;
1721;SDS011;858;53.190;8.596;2023-04-01T11:36:27;2.45;;;1.45;;
1721;SDS011;858;53.190;8.596;2023-04-01T11:39:01;1.30;;;1.20;;
1721;SDS011;858;53.190;8.596;2023-04-01T11:41:32;1.20;;;1.10;;
1721;SDS011;858;53.190;8.596;2023-04-01T11:44:07;1.10;;;1.10;;
1721;SDS011;858;53.190;8.596;2023-04-01T11:46:39;1.60;;;1.48;;
1721;SDS011;858;53.190;8.596;2023-04-01T11:49:16;1.25;;;1.15;;
1721;SDS011;858;53.190;8.596;2023-04-01T11:57:23;1.90;;;1.00;;
1721;SDS011;858;53.190;8.596;2023-04-01T11:59:59;1.20;;;1.10;;
1721;SDS011;858;53.190;8.596;2023-04-01T12:02:29;2.45;;;1.50;;
1721;SDS011;858;53.190;8.596;2023-04-01T12:05:19;2.05;;;1.80;;
1721;SDS011;858;53.190;8.596;2023-04-01T12:07:50;2.10;;;2.00;;
1721;SDS011;858;53.190;8.596;2023-04-01T12:10:19;2.10;;;2.00;;
1721;SDS011;858;53.190;8.596;2023-04-01T12:12:51;2.20;;;2.00;;
1721;SDS011;858;53.190;8.596;2023-04-01T12:15:23;2.00;;;1.55;;
1721;SDS011;858;53.190;8.596;2023-04-01T12:17:53;1.70;;;1.60;;
1721;SDS011;858;53.190;8.596;2023-04-01T12:20:26;1.40;;;1.20;;
1721;SDS011;858;53.190;8.596;2023-04-01T12:22:54;1.20;;;1.10;;
1721;SDS011;858;53.190;8.596;2023-04-01T12:25:34;1.50;;;1.13;;
1721;SDS011;858;53.190;8.596;2023-04-01T12:28:08;1.20;;;1.10;;
1721;SDS011;858;53.190;8.596;2023-04-01T12:30:42;1.40;;;1.00;;
1721;SDS011;858;53.190;8.596;2023-04-01T12:33:20;1.60;;;1.50;;
1721;SDS011;858;53.190;8.596;2023-04-01T12:35:53;1.33;;;1.23;;
1721;SDS011;858;53.190;8.596;2023-04-01T12:38:23;1.40;;;1.30;;
1721;SDS011;858;53.190;8.596;2023-04-01T12:40:52;2.00;;;1.50;;
1721;SDS011;858;53.190;8.596;2023-04-01T12:43:32;1.50;;;1.40;;
1721;SDS011;858;53.190;8.596;2023-04-01T12:46:02;1.38;;;1.27;;
1721;SDS011;858;53.190;8.596;2023-04-01T12:48:41;1.73;;;1.30;;
1721;SDS011;858;53.190;8.596;2023-04-01T12:51:29;1.40;;;1.30;;
1721;SDS011;858;53.190;8.596;2023-04-01T12:56:42;1.30;;;1.20;;
1721;SDS011;858;53.190;8.596;2023-04-01T12:59:21;2.13;;;1.92;;
1721;SDS011;858;53.190;8.596;2023-04-01T13:01:56;1.83;;;1.73;;
1721;SDS011;858;53.190;8.596;2023-04-01T13:04:32;1.60;;;1.50;;
1721;SDS011;858;53.190;8.596;2023-04-01T13:07:05;1.58;;;1.48;;
1721;SDS011;858;53.190;8.596;2023-04-01T13:09:37;1.30;;;1.20;;
1721;SDS011;858;53.190;8.596;2023-04-01T13:12:14;1.30;;;1.20;;
1721;SDS011;858;53.190;8.596;2023-04-01T13:14:52;1.17;;;1.00;;
1721;SDS011;858;53.190;8.596;2023-04-01T13:17:26;2.00;;;1.70;;
1721;SDS011;858;53.190;8.596;2023-04-01T13:19:57;1.88;;;1.60;;
1721;SDS011;858;53.190;8.596;2023-04-01T13:22:25;1.48;;;1.38;;
1721;SDS011;858;53.190;8.596;2023-04-01T13:24:55;1.63;;;1.52;;
1721;SDS011;858;53.190;8.596;2023-04-01T13:27:28;2.30;;;2.20;;
1721;SDS011;858;53.190;8.596;2023-04-01T13:30:02;3.00;;;2.80;;
1721;SDS011;858;53.190;8.596;2023-04-01T13:32:32;3.10;;;2.90;;
1721;SDS011;858;53.190;8.596;2023-04-01T13:35:08;2.90;;;2.70;;
1721;SDS011;858;53.190;8.596;2023-04-01T13:37:51;2.63;;;2.42;;
1721;SDS011;858;53.190;8.596;2023-04-01T13:40:23;2.08;;;1.98;;
1721;SDS011;858;53.190;8.596;2023-04-01T13:42:53;3.20;;;2.20;;
1721;SDS011;858;53.190;8.596;2023-04-01T13:45:22;2.15;;;2.05;;
1721;SDS011;858;53.190;8.596;2023-04-01T13:48:12;2.65;;;2.45;;
1721;SDS011;858;53.190;8.596;2023-04-01T13:50:56;2.70;;;2.50;;
1721;SDS011;858;53.190;8.596;2023-04-01T13:53:55;4.95;;;4.55;;
1721;SDS011;858;53.190;8.596;2023-04-01T13:56:33;5.85;;;5.35;;
1721;SDS011;858;53.190;8.596;2023-04-01T13:59:10;5.95;;;5.55;;
1721;SDS011;858;53.190;8.596;2023-04-01T14:01:43;4.90;;;4.38;;
1721;SDS011;858;53.190;8.596;2023-04-01T14:07:13;5.05;;;4.65;;
1721;SDS011;858;53.190;8.596;2023-04-01T14:09:48;6.10;;;5.70;;
1721;SDS011;858;53.190;8.596;2023-04-01T14:12:22;8.57;;;7.68;;
1721;SDS011;858;53.190;8.596;2023-04-01T14:14:56;7.32;;;6.82;;
1721;SDS011;858;53.190;8.596;2023-04-01T14:17:34;7.97;;;7.30;;
1721;SDS011;858;53.190;8.596;2023-04-01T14:20:25;7.20;;;6.60;;
1721;SDS011;858;53.190;8.596;2023-04-01T14:22:59;7.10;;;6.50;;
1721;SDS011;858;53.190;8.596;2023-04-01T14:25:50;7.20;;;6.70;;
1721;SDS011;858;53.190;8.596;2023-04-01T14:28:24;5.67;;;5.23;;
1721;SDS011;858;53.190;8.596;2023-04-01T14:31:00;5.80;;;5.30;;
1721;SDS011;858;53.190;8.596;2023-04-01T14:33:33;5.32;;;4.82;;
1721;SDS011;858;53.190;8.596;2023-04-01T14:36:18;6.32;;;5.75;;
1721;SDS011;858;53.190;8.596;2023-04-01T14:38:51;8.10;;;7.40;;
1721;SDS011;858;53.190;8.596;2023-04-01T14:41:29;7.67;;;6.97;;
1721;SDS011;858;53.190;8.596;2023-04-01T14:44:12;8.60;;;7.90;;
1721;SDS011;858;53.190;8.596;2023-04-01T14:49:32;8.27;;;7.38;;
1721;SDS011;858;53.190;8.596;2023-04-01T14:52:03;9.18;;;8.27;;
1721;SDS011;858;53.190;8.596;2023-04-01T14:54:31;7.80;;;7.00;;
1721;SDS011;858;53.190;8.596;2023-04-01T14:57:03;7.95;;;7.15;;
1721;SDS011;858;53.190;8.596;2023-04-01T14:59:29;6.68;;;6.18;;
1721;SDS011;858;53.190;8.596;2023-04-01T15:01:57;8.02;;;7.32;;
1721;SDS011;858;53.190;8.596;2023-04-01T15:04:30;8.18;;;7.47;;
1721;SDS011;858;53.190;8.596;2023-04-01T15:07:15;8.98;;;7.80;;
1721;SDS011;858;53.190;8.596;2023-04-01T15:09:47;9.68;;;8.75;;
1721;SDS011;858;53.190;8.596;2023-04-01T15:12:21;11.43;;;10.43;;
1721;SDS011;858;53.190;8.596;2023-04-01T15:14:56;11.45;;;10.45;;
1721;SDS011;858;53.190;8.596;2023-04-01T15:20:18;11.18;;;10.07;;
1721;SDS011;858;53.190;8.596;2023-04-01T15:25:36;10.05;;;9.05;;
1721;SDS011;858;53.190;8.596;2023-04-01T15:28:10;11.02;;;9.52;;
1721;SDS011;858;53.190;8.596;2023-04-01T15:30:44;11.30;;;10.20;;
1721;SDS011;858;53.190;8.596;2023-04-01T15:33:23;9.77;;;8.77;;
1721;SDS011;858;53.190;8.596;2023-04-01T15:35:57;10.07;;;9.13;;
1721;SDS011;858;53.190;8.596;2023-04-01T15:38:31;11.27;;;10.27;;
1721;SDS011;858;53.190;8.596;2023-04-01T15:41:02;10.70;;;9.70;;
1721;SDS011;858;53.190;8.596;2023-04-01T15:43:32;11.07;;;10.07;;
1721;SDS011;858;53.190;8.596;2023-04-01T15:46:09;11.30;;;10.30;;
1721;SDS011;858;53.190;8.596;2023-04-01T15:48:40;11.57;;;10.55;;
1721;SDS011;858;53.190;8.596;2023-04-01T15:51:16;11.40;;;10.40;;
1721;SDS011;858;53.190;8.596;2023-04-01T15:53:57;12.20;;;11.00;;
1721;SDS011;858;53.190;8.596;2023-04-01T15:56:36;12.10;;;11.00;;
1721;SDS011;858;53.190;8.596;2023-04-01T15:59:09;11.32;;;10.32;;
1721;SDS011;858;53.190;8.596;2023-04-01T16:01:43;11.15;;;10.10;;
1721;SDS011;858;53.190;8.596;2023-04-01T16:04:17;10.90;;;9.75;;
1721;SDS011;858;53.190;8.596;2023-04-01T16:06:51;10.32;;;9.43;;
1721;SDS011;858;53.190;8.596;2023-04-01T16:09:25;10.40;;;9.40;;
1721;SDS011;858;53.190;8.596;2023-04-01T16:11:58;10.90;;;10.00;;
1721;SDS011;858;53.190;8.596;2023-04-01T16:14:29;10.90;;;9.80;;
1721;SDS011;858;53.190;8.596;2023-04-01T16:17:00;11.30;;;10.10;;
1721;SDS011;858;53.190;8.596;2023-04-01T16:19:37;11.07;;;9.97;;
1721;SDS011;858;53.190;8.596;2023-04-01T16:22:08;12.20;;;10.98;;
1721;SDS011;858;53.190;8.596;2023-04-01T16:24:38;11.98;;;10.88;;
1721;SDS011;858;53.190;8.596;2023-04-01T16:27:11;11.00;;;9.90;;
1721;SDS011;858;53.190;8.596;2023-04-01T16:29:40;10.10;;;9.10;;
1721;SDS011;858;53.190;8.596;2023-04-01T16:32:26;9.82;;;7.70;;
1721;SDS011;858;53.190;8.596;2023-04-01T16:34:57;8.15;;;6.80;;
1721;SDS011;858;53.190;8.596;2023-04-01T16:37:29;6.20;;;5.60;;
1721;SDS011;858;53.190;8.596;2023-04-01T16:40:01;7.60;;;5.40;;
1721;SDS011;858;53.190;8.596;2023-04-01T16:42:38;7.10;;;6.40;;
1721;SDS011;858;53.190;8.596;2023-04-01T16:45:15;7.77;;;6.97;;
1721;SDS011;858;53.190;8.596;2023-04-01T16:47:46;9.27;;;8.38;;
1721;SDS011;858;53.190;8.596;2023-04-01T16:50:15;12.65;;;8.57;;
1721;SDS011;858;53.190;8.596;2023-04-01T16:52:48;9.05;;;8.05;;
1721;SDS011;858;53.190;8.596;2023-04-01T16:55:18;10.52;;;8.90;;
1721;SDS011;858;53.190;8.596;2023-04-01T16:57:48;9.75;;;8.75;;
1721;SDS011;858;53.190;8.596;2023-04-01T17:00:17;12.18;;;8.50;;
1721;SDS011;858;53.190;8.596;2023-04-01T17:02:47;9.40;;;8.30;;
1721;SDS011;858;53.190;8.596;2023-04-01T17:05:16;9.55;;;8.65;;
1721;SDS011;858;53.190;8.596;2023-04-01T17:07:46;10.85;;;8.98;;
1721;SDS011;858;53.190;8.596;2023-04-01T17:13:05;9.77;;;8.80;;
1721;SDS011;858;53.190;8.596;2023-04-01T17:15:34;9.02;;;8.15;;
1721;SDS011;858;53.190;8.596;2023-04-01T17:18:03;8.93;;;8.02;;
1721;SDS011;858;53.190;8.596;2023-04-01T17:20:33;8.63;;;7.40;;
1721;SDS011;858;53.190;8.596;2023-04-01T17:23:04;10.60;;;7.20;;
1721;SDS011;858;53.190;8.596;2023-04-01T17:25:38;8.15;;;7.35;;